Terminal Aerodrome Forecast
Issued by NWS

Home | Current Version | Previous Version | Text Only | Print | Product List | Glossary On
Versions: 1 2 3 4 5 6 7 8 9 10 11 12 13 14 15 16 17
000
FTUS45 KSLC 200343 AAD
TAFPVU
TAF AMD
KPVU 200343Z 2004/2024 VRB05KT 2SM -SHRASN BR SCT003 OVC015
      TEMPO 2004/2006 1/2SM FG OVC003
     FM200600 VRB04KT 4SM BR VCSH SCT003 BKN025
     FM201400 VRB05KT 6SM BR SCT007 BKN035
     FM201900 15008KT P6SM VCSH SCT020 BKN060=

USA.gov is the U.S. government's official web portal to all federal, state and local government web resources and services.